Avalon, Texas
Current Conditions -  °F | °C
As of 6:15 AM on Thursday 29 Jan 2015 (Local Time) from KJWY Reporting Station
Clear Clear  
Wind Chill: 11°   Ceiling: Unl
Heat Index: 11°   Visibility: 10mi
Dew Point:   Wind: 5mph
Humidity: 74%   Direction: 260°W
Pressure: 30.14"   Gusts: NA
Location:  32.21°N, 96.79°W
Report Text: KJWY 291215Z AUTO 26004KT 10SM CLR 11/07 A3014 RMK AO2 T01130069
Loading
Personal Weather Stations






























Interactive Weather Map New forecast layout! Learn more

10-Day Weather Forecast

Advertisements
Track Severe Weather on mobile